Time;durP1;ratioP1;P1;durP2;ratioP2;P2;SDS_P1;SDS_P2;PMS_P1;PMS_P2;Temp;Humidity;BMP_temperature;BMP_pressure;BME280_temperature;BME280_humidity;BME280_pressure;Samples;Min_cycle;Max_cycle;Signal;HPM_P1;HPM_P2
2023/08/05 00:02:02;;;;;;;10.40;7.07;;;;;;;25.96;52.99;96602.25;5089272;28;20287;-75
2023/08/05 00:04:29;;;;;;;9.53;7.27;;;;;;;26.16;52.36;96602.63;5089053;28;20727;-75
2023/08/05 00:06:56;;;;;;;10.70;7.67;;;;;;;26.37;51.35;96600.16;5089002;28;20204;-74
2023/08/05 00:09:23;;;;;;;9.00;6.93;;;;;;;26.36;51.12;96595.84;5089282;28;20373;-77
2023/08/05 00:11:50;;;;;;;12.57;7.63;;;;;;;26.46;51.37;96588.47;5088959;28;20185;-75
2023/08/05 00:14:17;;;;;;;8.97;6.93;;;;;;;26.54;51.13;96594.50;5089131;28;20214;-75
2023/08/05 00:16:44;;;;;;;10.43;7.20;;;;;;;26.14;51.61;96562.16;5088868;28;20283;-76
2023/08/05 00:19:12;;;;;;;9.80;8.00;;;;;;;26.10;52.03;96588.25;5070837;28;20196;-77
2023/08/05 00:21:40;;;;;;;10.60;7.70;;;;;;;26.15;52.24;96580.56;5088948;28;20275;-76
2023/08/05 00:24:08;;;;;;;8.57;7.43;;;;;;;25.95;51.97;96560.78;5088804;28;20370;-75
2023/08/05 00:26:35;;;;;;;10.87;7.90;;;;;;;26.07;52.38;96564.69;5089222;28;20627;-76
2023/08/05 00:29:02;;;;;;;11.50;7.77;;;;;;;25.68;53.04;96556.81;5070572;28;20192;-76
2023/08/05 00:31:29;;;;;;;11.63;8.20;;;;;;;25.88;52.95;96574.94;5089268;28;20271;-76
2023/08/05 00:33:57;;;;;;;9.33;7.07;;;;;;;25.99;52.52;96572.69;5088670;28;20192;-82
2023/08/05 00:36:24;;;;;;;8.13;6.53;;;;;;;26.10;52.51;96566.19;5088960;28;20217;-83
2023/08/05 00:38:51;;;;;;;8.63;6.63;;;;;;;26.14;52.35;96564.81;5088636;28;20193;-77
2023/08/05 00:41:18;;;;;;;8.57;6.73;;;;;;;26.24;52.07;96560.09;5088303;28;20185;-76
2023/08/05 00:43:46;;;;;;;10.03;6.70;;;;;;;26.24;51.77;96557.44;5070010;28;20259;-76
2023/08/05 00:46:13;;;;;;;9.50;6.87;;;;;;;26.08;52.01;96534.50;5088742;28;20192;-76
2023/08/05 00:48:41;;;;;;;10.03;6.97;;;;;;;26.33;51.97;96533.31;5088582;28;20192;-76
2023/08/05 00:51:08;;;;;;;9.27;7.50;;;;;;;26.16;51.98;96531.78;5088262;28;20189;-77
2023/08/05 00:53:37;;;;;;;11.07;7.73;;;;;;;25.91;52.98;96542.72;5070142;28;20192;-76
2023/08/05 00:56:04;;;;;;;11.83;8.57;;;;;;;26.11;52.79;96536.78;5088157;28;20250;-76
2023/08/05 00:58:33;;;;;;;12.13;8.87;;;;;;;26.39;51.86;96537.06;5088218;28;20212;-76
2023/08/05 01:01:01;;;;;;;10.23;7.43;;;;;;;26.46;51.50;96532.69;5088212;28;20185;-76
2023/08/05 01:03:30;;;;;;;15.57;9.17;;;;;;;26.41;51.75;96522.59;5087847;28;20683;-76
2023/08/05 01:05:59;;;;;;;12.80;8.90;;;;;;;26.46;51.79;96527.38;5053584;28;20199;-76
2023/08/05 01:08:27;;;;;;;13.53;9.00;;;;;;;26.33;52.03;96516.53;5069845;28;20188;-76
2023/08/05 01:10:54;;;;;;;13.40;9.23;;;;;;;26.23;52.47;96515.97;5089557;28;20176;-83
2023/08/05 01:13:21;;;;;;;15.43;9.77;;;;;;;26.23;52.19;96500.88;5070220;28;20200;-82
2023/08/05 01:15:48;;;;;;;13.13;9.17;;;;;;;26.39;51.67;96516.66;5069755;28;20220;-78
2023/08/05 01:18:17;;;;;;;15.37;9.80;;;;;;;26.32;52.52;96510.41;5088248;28;20288;-84
2023/08/05 01:20:48;;;;;;;13.97;10.17;;;;;;;26.27;52.29;96504.81;5069764;28;20193;-77
2023/08/05 01:23:37;;;;;;;13.87;9.30;;;;;;;25.78;53.35;96504.34;5069792;28;20244;-81
2023/08/05 01:26:05;;;;;;;15.43;10.27;;;;;;;25.86;53.55;96506.13;5069645;28;20193;-83
2023/08/05 01:28:35;;;;;;;16.47;10.90;;;;;;;25.71;53.10;96490.16;5069271;28;20189;-79
2023/08/05 01:31:04;;;;;;;14.47;10.10;;;;;;;25.92;53.22;96507.22;5087697;28;20242;-83
2023/08/05 01:33:33;;;;;;;15.73;10.43;;;;;;;25.71;53.26;96494.63;5069221;28;20284;-78
2023/08/05 01:36:03;;;;;;;12.20;10.37;;;;;;;25.73;53.50;96504.06;5087609;28;20276;-79
2023/08/05 01:38:30;;;;;;;15.13;9.37;;;;;;;25.95;53.46;96504.22;5086878;28;20623;-77
2023/08/05 01:40:58;;;;;;;12.37;9.17;;;;;;;26.00;52.83;96493.91;5087320;28;20195;-82
2023/08/05 01:43:25;;;;;;;11.83;8.83;;;;;;;25.90;53.63;96501.28;5069107;28;20301;-79
2023/08/05 01:45:52;;;;;;;8.27;6.30;;;;;;;25.99;53.09;96506.34;5087300;28;20196;-84
2023/08/05 01:48:19;;;;;;;9.87;6.40;;;;;;;25.98;52.66;96504.69;5087446;28;20690;-86
2023/08/05 01:50:47;;;;;;;8.93;6.87;;;;;;;25.78;53.22;96485.75;5069271;28;20899;-81
2023/08/05 01:53:15;;;;;;;9.73;7.70;;;;;;;25.91;52.80;96500.25;5052749;28;20231;-83
2023/08/05 01:55:42;;;;;;;13.67;8.90;;;;;;;25.38;54.07;96496.63;5068191;28;20196;-84
2023/08/05 01:58:09;;;;;;;10.97;7.90;;;;;;;25.02;55.37;96483.06;5052643;28;20678;-79
2023/08/05 02:00:36;;;;;;;11.90;8.23;;;;;;;24.75;55.68;96482.69;5069111;28;20180;-84
2023/08/05 02:03:04;;;;;;;11.30;7.57;;;;;;;24.84;55.73;96494.88;5087078;28;20642;-84
2023/08/05 02:05:31;;;;;;;12.27;8.53;;;;;;;24.71;56.58;96489.28;5052611;28;20183;-83
2023/08/05 02:07:58;;;;;;;11.17;7.30;;;;;;;24.38;57.39;96496.47;5087063;28;20188;-82
2023/08/05 02:10:25;;;;;;;9.27;7.10;;;;;;;24.12;58.10;96504.63;5087097;28;20227;-86
2023/08/05 02:12:53;;;;;;;7.73;6.87;;;;;;;24.13;57.46;96500.97;5086927;28;20674;-84
2023/08/05 02:15:20;;;;;;;8.77;6.63;;;;;;;24.17;57.57;96504.91;5087031;28;20246;-85
2023/08/05 02:17:47;;;;;;;10.17;7.30;;;;;;;23.69;59.33;96506.72;5068780;28;20679;-85
2023/08/05 02:20:15;;;;;;;8.63;7.07;;;;;;;23.57;59.49;96498.28;5086869;28;20214;-80
2023/08/05 02:22:43;;;;;;;9.77;6.63;;;;;;;23.64;59.20;96507.19;5036226;28;20582;-79
2023/08/05 02:25:10;;;;;;;8.67;7.37;;;;;;;23.36;60.44;96501.38;5096788;28;20215;-79
2023/08/05 02:27:37;;;;;;;9.47;7.37;;;;;;;23.31;61.14;96503.63;5074934;28;20185;-75
2023/08/05 02:30:06;;;;;;;8.80;7.40;;;;;;;23.17;61.77;96512.19;5069579;28;20251;-77
2023/08/05 02:32:33;;;;;;;9.73;7.20;;;;;;;23.44;60.80;96517.25;5069282;28;21092;-76
2023/08/05 02:35:00;;;;;;;7.57;6.70;;;;;;;23.63;60.41;96510.84;5087103;28;20197;-75
2023/08/05 02:37:29;;;;;;;10.93;7.83;;;;;;;23.57;61.65;96524.72;5069077;28;20202;-76
2023/08/05 02:39:57;;;;;;;10.23;7.50;;;;;;;23.56;61.80;96516.94;5086573;28;20198;-75
2023/08/05 02:42:24;;;;;;;7.97;7.17;;;;;;;23.28;62.01;96466.97;5086764;28;20205;-75
2023/08/05 02:44:51;;;;;;;9.63;7.30;;;;;;;23.47;62.58;96517.91;5086682;28;20712;-75
2023/08/05 02:47:18;;;;;;;7.63;6.70;;;;;;;23.73;61.43;96515.97;5086543;28;20197;-77
2023/08/05 02:49:45;;;;;;;8.37;7.23;;;;;;;23.83;61.36;96520.13;5051596;28;20584;-75
2023/08/05 02:52:12;;;;;;;9.60;7.67;;;;;;;23.96;60.49;96524.91;5086384;28;20206;-75
2023/08/05 02:54:39;;;;;;;9.73;7.43;;;;;;;24.03;60.17;96481.78;5068303;28;20635;-81
2023/08/05 02:57:06;;;;;;;9.57;7.33;;;;;;;24.38;58.72;96514.19;5068339;28;20192;-83
2023/08/05 02:59:33;;;;;;;9.17;7.20;;;;;;;24.10;58.59;96477.50;5086407;28;20668;-83
2023/08/05 03:02:00;;;;;;;9.97;7.90;;;;;;;23.79;60.04;96518.78;5086710;28;20187;-79
2023/08/05 03:04:28;;;;;;;12.10;8.60;;;;;;;23.69;60.42;96518.13;5068014;28;20216;-80
2023/08/05 03:06:55;;;;;;;10.60;8.53;;;;;;;23.30;61.37;96511.72;5088943;28;20571;-81
2023/08/05 03:09:22;;;;;;;10.73;7.90;;;;;;;23.49;61.03;96519.41;5090164;28;20280;-78
2023/08/05 03:11:49;;;;;;;12.60;8.40;;;;;;;23.47;61.39;96526.69;5055536;28;20274;-83
2023/08/05 03:14:16;;;;;;;14.67;9.20;;;;;;;23.79;60.21;96518.78;5071957;28;20207;-78
2023/08/05 03:16:43;;;;;;;9.87;8.27;;;;;;;23.68;60.00;96520.94;5090073;28;20704;-78
2023/08/05 03:19:16;;;;;;;8.67;7.60;;;;;;;23.55;60.06;96526.69;5071974;28;20206;-83
2023/08/05 03:21:43;;;;;;;11.97;7.97;;;;;;;23.86;59.46;96522.44;5071923;28;20187;-83
2023/08/05 03:24:11;;;;;;;10.90;7.93;;;;;;;24.05;59.12;96498.31;5072065;28;20722;-82
2023/08/05 03:26:41;;;;;;;10.40;7.93;;;;;;;24.45;58.10;96517.78;5090152;28;20278;-76
2023/08/05 03:29:10;;;;;;;13.50;7.37;;;;;;;24.61;57.27;96526.53;5055286;28;20202;-76
2023/08/05 03:31:38;;;;;;;10.00;8.03;;;;;;;24.64;57.66;96528.03;5072002;28;20189;-84
2023/08/05 03:34:06;;;;;;;12.83;8.77;;;;;;;24.38;57.87;96524.78;5071609;28;20191;-80
2023/08/05 03:36:36;;;;;;;13.90;9.97;;;;;;;23.86;59.19;96509.22;5071870;28;20260;-79
2023/08/05 03:39:04;;;;;;;14.87;8.60;;;;;;;23.53;60.14;96520.75;5072350;28;20551;-83
2023/08/05 03:41:33;;;;;;;14.03;8.70;;;;;;;23.80;59.27;96522.28;5074169;28;20185;-75
2023/08/05 03:44:04;;;;;;;14.57;8.77;;;;;;;24.30;58.61;96501.78;5095592;28;20247;-78
2023/08/05 03:46:31;;;;;;;13.77;8.37;;;;;;;24.73;57.00;96519.09;5113840;28;20183;-77
2023/08/05 03:49:00;;;;;;;17.30;9.57;;;;;;;24.86;56.51;96519.38;5087090;28;20195;-84
2023/08/05 03:51:27;;;;;;;7.63;6.63;;;;;;;25.18;54.21;96507.84;5091692;28;20226;-84
2023/08/05 03:53:56;;;;;;;10.43;8.27;;;;;;;24.88;55.40;96502.31;5073627;28;20198;-84
2023/08/05 03:56:27;;;;;;;7.83;6.37;;;;;;;24.67;55.09;96507.31;5073829;28;20198;-79
2023/08/05 03:58:57;;;;;;;11.63;6.77;;;;;;;24.95;54.69;96499.81;5072212;28;20212;-85
2023/08/05 04:01:26;;;;;;;10.20;6.97;;;;;;;24.76;55.88;96502.84;5071744;28;20289;-81
2023/08/05 04:03:54;;;;;;;10.33;6.60;;;;;;;24.98;55.93;96516.19;5055783;28;20231;-81
2023/08/05 04:06:25;;;;;;;8.20;7.10;;;;;;;25.74;54.50;96518.97;5071783;28;20296;-83
2023/08/05 04:08:54;;;;;;;10.50;7.80;;;;;;;26.34;53.21;96526.13;5089647;28;20224;-75
2023/08/05 04:11:21;;;;;;;14.10;8.10;;;;;;;26.12;53.99;96505.78;5054801;28;20189;-84
2023/08/05 04:13:52;;;;;;;11.30;8.90;;;;;;;26.56;53.23;96525.28;5089020;28;20647;-85
2023/08/05 04:16:22;;;;;;;10.87;8.37;;;;;;;26.62;52.02;96524.56;5054274;28;20670;-74
2023/08/05 04:18:49;;;;;;;11.17;8.13;;;;;;;26.49;52.51;96519.88;5070623;28;20191;-76
2023/08/05 04:21:16;;;;;;;12.83;7.83;;;;;;;26.53;52.15;96517.66;5089034;28;20200;-73
2023/08/05 04:23:46;;;;;;;9.93;8.13;;;;;;;26.29;52.85;96523.22;5088882;28;20188;-73
2023/08/05 04:26:14;;;;;;;9.33;7.63;;;;;;;26.32;52.17;96515.72;5074644;28;20590;-74
2023/08/05 04:28:41;;;;;;;11.60;7.37;;;;;;;25.70;53.33;96520.31;5092611;28;20188;-79
2023/08/05 04:31:08;;;;;;;7.83;6.90;;;;;;;26.22;52.22;96516.97;5094948;28;20201;-75
2023/08/05 04:33:35;;;;;;;10.87;7.60;;;;;;;26.51;50.67;96525.81;5060644;28;20272;-77
2023/08/05 04:36:02;;;;;;;10.73;7.67;;;;;;;26.46;51.13;96519.41;5091357;28;20243;-83
2023/08/05 04:38:29;;;;;;;13.73;7.93;;;;;;;26.94;51.11;96513.59;5075065;28;20272;-81
2023/08/05 04:40:57;;;;;;;9.00;7.60;;;;;;;27.17;50.34;96524.13;5069873;28;20193;-78
2023/08/05 04:43:25;;;;;;;8.20;5.57;;;;;;;27.46;47.50;96517.94;5071701;28;20215;-88
2023/08/05 04:45:54;;;;;;;7.00;6.30;;;;;;;27.36;46.00;96504.97;5089065;28;20235;-84
2023/08/05 04:48:21;;;;;;;5.47;4.93;;;;;;;26.85;45.61;96522.69;5037449;28;20193;-86
2023/08/05 04:50:48;;;;;;;6.17;4.87;;;;;;;27.00;44.68;96520.84;5070535;28;20189;-82
2023/08/05 04:53:15;;;;;;;8.73;5.17;;;;;;;27.49;44.60;96533.56;5088260;28;20196;-84
2023/08/05 04:55:43;;;;;;;8.90;5.03;;;;;;;27.57;43.84;96533.44;5088061;28;20201;-82
2023/08/05 04:58:11;;;;;;;5.00;4.50;;;;;;;27.87;43.09;96525.16;5087959;28;20185;-76
2023/08/05 05:00:39;;;;;;;5.40;4.70;;;;;;;27.89;41.72;96528.47;5070252;28;20191;-86
2023/08/05 05:03:07;;;;;;;5.43;4.50;;;;;;;28.01;43.04;96531.47;5088383;28;20196;-78
2023/08/05 05:05:35;;;;;;;6.50;4.13;;;;;;;28.26;41.66;96531.91;5086335;28;20221;-84
2023/08/05 05:08:03;;;;;;;6.93;4.70;;;;;;;28.16;42.04;96518.91;5054510;28;20250;-84
2023/08/05 05:10:30;;;;;;;6.83;5.67;;;;;;;28.19;41.71;96530.00;5055536;28;20224;-82
2023/08/05 05:12:58;;;;;;;7.40;5.00;;;;;;;28.56;41.57;96531.59;5071014;28;20266;-83
2023/08/05 05:15:25;;;;;;;6.47;4.90;;;;;;;28.41;42.00;96522.81;5091619;28;20682;-80
2023/08/05 05:17:53;;;;;;;6.30;4.73;;;;;;;28.14;43.10;96520.94;5102876;28;20250;-77
2023/08/05 05:20:29;;;;;;;8.27;5.43;;;;;;;28.60;42.64;96521.34;5088871;28;20192;-80
2023/08/05 05:22:56;;;;;;;6.70;5.40;;;;;;;27.83;42.69;96499.94;5079704;28;20230;-82
2023/08/05 05:25:23;;;;;;;6.37;4.97;;;;;;;28.41;41.83;96509.50;5089911;28;20224;-81
2023/08/05 05:27:51;;;;;;;7.80;4.63;;;;;;;28.28;42.97;96504.06;5088200;28;20183;-78
2023/08/05 05:30:18;;;;;;;7.67;5.10;;;;;;;28.18;42.27;96495.56;5068284;28;20242;-84
2023/08/05 05:32:45;;;;;;;10.83;5.63;;;;;;;28.45;42.89;96516.09;5087819;28;20601;-83
2023/08/05 05:35:13;;;;;;;7.90;6.33;;;;;;;28.37;42.76;96515.41;5087494;28;20196;-83
2023/08/05 05:37:41;;;;;;;9.07;5.90;;;;;;;28.63;43.45;96524.44;5069292;28;20660;-82
2023/08/05 05:40:09;;;;;;;7.00;4.83;;;;;;;28.67;42.63;96528.38;5086875;28;20276;-77
2023/08/05 05:42:39;;;;;;;8.13;5.20;;;;;;;28.46;43.30;96517.72;5060556;28;20200;-79
2023/08/05 05:45:07;;;;;;;8.53;4.90;;;;;;;28.67;43.60;96480.38;5086699;28;20311;-82
2023/08/05 05:47:35;;;;;;;8.13;5.30;;;;;;;28.65;43.82;96527.75;5087115;28;20279;-81
2023/08/05 05:50:03;;;;;;;5.50;5.00;;;;;;;27.91;44.96;96509.63;5069179;28;20192;-81
2023/08/05 05:52:30;;;;;;;5.13;4.63;;;;;;;27.99;44.97;96512.19;5086782;28;20687;-78
2023/08/05 05:54:58;;;;;;;6.07;4.83;;;;;;;27.88;46.29;96526.00;5086799;28;20794;-76
2023/08/05 05:57:25;;;;;;;6.70;5.30;;;;;;;28.07;45.90;96522.72;5068939;28;20215;-75
2023/08/05 05:59:53;;;;;;;8.07;5.30;;;;;;;28.10;46.17;96514.34;5086877;28;20188;-77
2023/08/05 06:02:20;;;;;;;7.00;5.50;;;;;;;28.55;45.22;96508.56;5068675;28;20200;-80
2023/08/05 06:04:48;;;;;;;9.77;6.07;;;;;;;28.00;46.54;96511.19;5069141;28;20225;-83
2023/08/05 06:07:15;;;;;;;6.63;6.03;;;;;;;28.02;47.06;96507.34;5070080;28;20264;-79
2023/08/05 06:09:42;;;;;;;8.77;6.13;;;;;;;28.21;46.22;96492.53;5097168;28;20590;-80
2023/08/05 06:12:10;;;;;;;9.27;6.40;;;;;;;28.34;46.10;96503.28;5095686;28;20200;-78
2023/08/05 06:14:38;;;;;;;5.97;5.10;;;;;;;28.24;46.95;96478.81;5088834;28;20386;-79
2023/08/05 06:17:05;;;;;;;7.13;5.17;;;;;;;28.11;46.98;96497.34;5088840;28;20273;-78
2023/08/05 06:19:32;;;;;;;6.87;6.17;;;;;;;28.05;47.12;96496.28;5065728;28;20200;-82
2023/08/05 06:22:39;;;;;;;13.37;7.03;;;;;;;28.15;47.48;96496.78;5066799;28;20201;-80
2023/08/05 06:26:00;;;;;;;8.13;5.27;;;;;;;27.61;49.61;96503.63;5037661;28;20221;-76
2023/08/05 06:29:21;;;;;;;7.67;6.20;;;;;;;27.98;48.71;96499.91;5049944;28;20185;-75
2023/08/05 06:32:41;;;;;;;5.80;5.23;;;;;;;28.43;48.30;96499.47;5065524;28;20272;-78
2023/08/05 06:36:02;;;;;;;8.47;5.10;;;;;;;28.29;50.59;96497.72;5047190;28;20197;-76
2023/08/05 06:39:23;;;;;;;5.00;4.47;;;;;;;28.34;50.58;96484.63;5065694;28;20276;-75
2023/08/05 06:42:44;;;;;;;6.80;5.17;;;;;;;27.73;53.71;96482.63;5068583;28;20598;-78
2023/08/05 06:46:05;;;;;;;7.80;4.50;;;;;;;28.08;54.20;96482.59;5089460;28;20243;-75
2023/08/05 06:49:26;;;;;;;5.87;5.27;;;;;;;27.73;55.29;96490.63;5089554;28;20235;-82
2023/08/05 06:52:48;;;;;;;6.47;4.90;;;;;;;27.45;57.07;96466.56;5090074;28;20261;-76
2023/08/05 06:56:21;;;;;;;7.43;4.53;;;;;;;27.46;56.91;96470.91;5091027;28;20180;-78
2023/08/05 06:59:42;;;;;;;6.90;5.27;;;;;;;27.72;57.38;96459.72;5090516;28;20192;-79
2023/08/05 07:03:03;;;;;;;14.33;7.67;;;;;;;27.92;56.96;96453.56;5091475;28;20188;-81
2023/08/05 07:06:23;;;;;;;4.93;4.50;;;;;;;28.37;54.95;96465.63;5090554;28;20216;-78
2023/08/05 07:09:44;;;;;;;8.97;5.57;;;;;;;28.70;54.94;96469.34;5075551;28;20319;-80
2023/08/05 07:13:06;;;;;;;8.30;5.10;;;;;;;28.96;53.34;96469.47;5067942;28;20212;-78
2023/08/05 07:15:47;;;;;;;8.63;5.43;;;;;;;28.55;52.72;96459.78;5065485;28;20212;-76
2023/08/05 07:18:54;;;;;;;7.40;5.67;;;;;;;28.63;53.40;96460.47;5064907;28;20288;-74
2023/08/05 07:22:16;;;;;;;6.67;5.03;;;;;;;28.69;54.44;96446.38;5073403;28;20196;-81
2023/08/05 07:25:36;;;;;;;6.17;5.57;;;;;;;28.96;53.93;96463.31;5087882;28;20235;-82
2023/08/05 07:28:57;;;;;;;6.67;5.30;;;;;;;28.98;53.33;96446.09;5080060;28;20262;-82
2023/08/05 07:31:38;;;;;;;8.17;5.40;;;;;;;29.36;52.99;96461.66;5064030;28;20206;-79
2023/08/05 07:34:08;;;;;;;7.23;5.40;;;;;;;29.59;52.65;96454.94;5052303;28;20203;-81
2023/08/05 07:36:36;;;;;;;6.50;5.27;;;;;;;29.12;53.06;96446.19;5041088;28;20592;-83
2023/08/05 07:39:06;;;;;;;5.13;4.63;;;;;;;29.46;51.94;96443.44;5071466;28;20257;-83
2023/08/05 07:41:33;;;;;;;8.43;5.97;;;;;;;29.34;52.66;96450.38;5089775;28;20203;-81
2023/08/05 07:44:01;;;;;;;11.10;6.23;;;;;;;29.71;52.58;96447.19;5054345;28;20203;-77
2023/08/05 07:46:35;;;;;;;7.00;5.23;;;;;;;29.74;53.08;96452.97;5089334;28;20211;-82
2023/08/05 07:49:04;;;;;;;5.93;5.33;;;;;;;28.80;53.57;96437.81;5054796;28;20191;-78
2023/08/05 07:51:31;;;;;;;7.80;5.70;;;;;;;28.72;53.95;96446.00;5071771;28;20619;-74
2023/08/05 07:53:59;;;;;;;5.97;5.13;;;;;;;28.45;54.93;96417.50;5089193;28;20238;-78
2023/08/05 07:56:26;;;;;;;7.33;5.93;;;;;;;28.71;54.24;96433.66;5094261;28;20638;-79
2023/08/05 07:58:53;;;;;;;7.67;5.40;;;;;;;28.85;53.97;96423.91;5093996;28;20192;-78
2023/08/05 08:01:22;;;;;;;8.80;5.87;;;;;;;29.05;54.42;96439.97;5058290;28;20260;-79
2023/08/05 08:04:32;;;;;;;6.13;5.17;;;;;;;29.72;51.22;96454.16;5051213;28;20196;-78
2023/08/05 08:07:55;;;;;;;8.10;5.70;;;;;;;29.19;53.88;96453.19;5068888;28;20785;-79
2023/08/05 08:11:15;;;;;;;11.50;7.07;;;;;;;29.08;53.64;96450.25;5087606;28;20861;-79
2023/08/05 08:14:36;;;;;;;8.80;5.07;;;;;;;28.85;53.75;96447.91;5082008;28;20205;-76
2023/08/05 08:17:57;;;;;;;5.23;4.73;;;;;;;28.73;53.76;96442.28;5070442;28;20732;-80
2023/08/05 08:21:18;;;;;;;5.63;5.03;;;;;;;29.24;52.46;96418.75;5088197;28;20631;-82
2023/08/05 08:24:38;;;;;;;7.70;4.80;;;;;;;29.11;52.69;96417.84;5088639;28;20231;-79
2023/08/05 08:27:19;;;;;;;7.67;6.23;;;;;;;29.14;53.29;96433.47;5081914;28;20196;-78
2023/08/05 08:29:46;;;;;;;7.30;5.17;;;;;;;29.17;52.46;96433.06;5090202;28;20181;-82
2023/08/05 08:32:13;;;;;;;6.57;5.60;;;;;;;29.49;52.32;96409.16;5088806;28;20185;-80
2023/08/05 08:35:20;;;;;;;7.30;5.20;;;;;;;29.63;51.07;96428.69;5088978;28;20197;-78
2023/08/05 08:38:41;;;;;;;7.10;4.63;;;;;;;29.64;51.89;96416.97;5068881;28;20185;-78
2023/08/05 08:42:02;;;;;;;9.67;5.33;;;;;;;30.13;50.58;96420.09;5069165;28;20182;-85
2023/08/05 08:45:23;;;;;;;4.97;4.37;;;;;;;29.94;50.36;96412.94;5056983;28;20728;-82
2023/08/05 08:48:44;;;;;;;5.37;4.63;;;;;;;30.13;50.16;96404.06;5074223;28;20691;-76
2023/08/05 08:52:05;;;;;;;6.60;5.07;;;;;;;30.45;49.06;96391.72;5069190;28;20185;-82
2023/08/05 08:55:26;;;;;;;6.10;4.77;;;;;;;30.22;49.08;96394.81;5068139;28;20188;-73
2023/08/05 08:58:46;;;;;;;7.03;4.93;;;;;;;30.84;47.57;96390.78;5067452;28;20216;-76
2023/08/05 09:02:07;;;;;;;6.00;4.67;;;;;;;29.96;50.01;96400.19;5067889;28;20189;-78
2023/08/05 09:05:28;;;;;;;4.50;4.10;;;;;;;29.96;48.85;96392.19;5051826;28;20287;-75
2023/08/05 09:08:50;;;;;;;4.60;4.20;;;;;;;30.15;47.89;96398.53;5035485;28;20243;-77
2023/08/05 09:12:10;;;;;;;7.93;4.70;;;;;;;30.24;48.14;96384.75;5027632;28;20243;-77
2023/08/05 09:15:32;;;;;;;7.53;5.07;;;;;;;30.45;48.48;96379.19;5026107;28;20186;-84
2023/08/05 09:18:53;;;;;;;6.20;4.47;;;;;;;30.50;48.40;96370.56;5029496;28;20195;-84
2023/08/05 09:22:13;;;;;;;6.25;3.95;;;;;;;30.14;47.75;96365.66;5026211;28;20572;-77
2023/08/05 09:25:34;;;;;;;4.87;4.47;;;;;;;30.21;47.88;96374.47;5028749;28;20226;-83
2023/08/05 09:28:55;;;;;;;5.10;4.00;;;;;;;30.24;48.33;96357.19;5029025;28;20305;-78
2023/08/05 09:32:18;;;;;;;6.15;4.65;;;;;;;30.48;47.62;96367.25;5030223;28;20252;-71
2023/08/05 09:34:59;;;;;;;5.87;4.63;;;;;;;30.43;47.00;96346.50;5036131;28;20201;-82
2023/08/05 09:37:26;;;;;;;7.10;4.70;;;;;;;30.79;47.08;96355.84;5049398;28;20193;-74
2023/08/05 09:39:53;;;;;;;6.80;4.15;;;;;;;30.84;45.83;96369.38;5049565;28;20271;-70
2023/08/05 09:42:25;;;;;;;5.63;4.33;;;;;;;30.39;45.91;96339.94;5049472;28;20194;-72
2023/08/05 09:44:57;;;;;;;4.00;3.47;;;;;;;30.40;47.33;96346.91;5047669;28;20229;-75
2023/08/05 09:47:30;;;;;;;4.85;3.85;;;;;;;30.36;45.76;96331.50;5046796;28;20190;-73
2023/08/05 09:50:04;;;;;;;5.47;3.70;;;;;;;30.13;46.45;96329.28;5049332;28;20182;-76
2023/08/05 09:52:33;;;;;;;4.75;4.00;;;;;;;30.57;46.03;96311.69;5031869;28;20653;-73
2023/08/05 09:55:07;;;;;;;6.18;3.40;;;;;;;31.07;43.46;96318.88;5048820;28;20697;-80
2023/08/05 09:57:34;;;;;;;6.43;3.10;;;;;;;31.10;41.54;96331.81;5042423;28;20296;-77
2023/08/05 10:00:07;;;;;;;4.57;3.30;;;;;;;31.07;42.81;96333.09;5047782;28;20193;-72
2023/08/05 10:02:35;;;;;;;3.97;3.10;;;;;;;31.27;41.82;96292.81;5046091;28;20754;-78
2023/08/05 10:05:03;;;;;;;3.85;3.30;;;;;;;31.50;40.81;96321.72;5046903;28;20225;-77
2023/08/05 10:07:30;;;;;;;4.47;2.80;;;;;;;31.63;40.99;96319.78;5046706;28;20194;-78
2023/08/05 10:09:58;;;;;;;4.95;3.55;;;;;;;31.31;42.56;96304.72;5074501;28;20278;-86
2023/08/05 10:12:30;;;;;;;5.07;2.83;;;;;;;31.11;42.08;96314.75;5088150;28;20717;-81
2023/08/05 10:15:00;;;;;;;3.13;2.47;;;;;;;30.88;42.10;96309.94;5070020;28;20212;-87
2023/08/05 10:17:28;;;;;;;4.80;3.35;;;;;;;31.17;42.05;96311.22;5089028;28;20617;-81
2023/08/05 10:19:55;;;;;;;3.28;2.85;;;;;;;31.49;42.08;96320.88;5088020;28;20184;-72
2023/08/05 10:22:24;;;;;;;4.70;3.25;;;;;;;31.06;42.40;96314.56;5087894;28;20269;-80
2023/08/05 10:25:37;;;;;;;4.78;3.08;;;;;;;31.29;41.92;96320.19;5069144;28;20227;-84
2023/08/05 10:28:24;;;;;;;6.38;3.03;;;;;;;31.39;40.62;96299.13;5085780;28;20227;-79
2023/08/05 10:31:45;;;;;;;4.05;3.10;;;;;;;31.45;41.70;96290.22;5071596;28;20204;-74
2023/08/05 10:35:05;;;;;;;3.30;2.63;;;;;;;31.50;41.09;96279.69;5086763;28;20588;-77
2023/08/05 10:38:12;;;;;;;4.63;2.60;;;;;;;32.11;39.77;96284.31;5086028;28;20258;-74
2023/08/05 10:41:32;;;;;;;3.95;2.40;;;;;;;32.20;37.65;96291.00;5051398;28;20264;-79
2023/08/05 10:44:56;;;;;;;3.30;2.35;;;;;;;31.91;35.74;96282.63;5065020;28;20207;-79
2023/08/05 10:48:17;;;;;;;3.67;2.60;;;;;;;32.44;36.70;96277.53;5065528;28;20193;-81
2023/08/05 10:51:37;;;;;;;2.70;2.50;;;;;;;32.77;34.41;96263.72;5065355;28;20244;-79
2023/08/05 10:54:58;;;;;;;3.65;2.35;;;;;;;32.60;33.99;96260.84;5049965;28;20205;-81
2023/08/05 10:57:39;;;;;;;6.43;2.80;;;;;;;32.72;33.44;96264.44;5065802;28;20676;-81
2023/08/05 11:00:56;;;;;;;4.40;2.28;;;;;;;32.78;34.75;96262.69;5065498;28;20258;-80
2023/08/05 11:03:45;;;;;;;2.78;2.50;;;;;;;32.50;36.14;96254.41;5066662;28;20193;-82
2023/08/05 11:06:14;;;;;;;3.17;2.22;;;;;;;32.67;35.78;96255.41;5048475;28;20299;-73
2023/08/05 11:08:42;;;;;;;2.67;2.00;;;;;;;32.73;35.75;96252.63;5065801;28;20587;-86
2023/08/05 11:11:14;;;;;;;3.85;3.45;;;;;;;33.07;35.68;96255.69;5047868;28;20202;-77
2023/08/05 11:13:44;;;;;;;4.45;2.38;;;;;;;33.25;36.01;96256.44;5032058;28;20247;-84
2023/08/05 11:16:14;;;;;;;6.38;2.92;;;;;;;33.05;36.27;96241.69;5066188;28;20261;-75
2023/08/05 11:18:43;;;;;;;4.20;2.20;;;;;;;32.84;36.95;96234.94;5066458;28;20760;-79
2023/08/05 11:21:17;;;;;;;3.92;2.15;;;;;;;32.66;38.26;96237.69;5070132;28;20263;-81
2023/08/05 11:23:45;;;;;;;4.10;2.80;;;;;;;32.70;38.42;96246.91;5068702;28;20731;-73
2023/08/05 11:26:13;;;;;;;4.78;2.67;;;;;;;32.24;39.40;96223.34;5066557;28;20217;-76
2023/08/05 11:28:47;;;;;;;6.28;2.50;;;;;;;32.24;38.91;96215.28;5051239;28;20200;-82
2023/08/05 11:31:26;;;;;;;6.40;2.40;;;;;;;32.61;38.31;96213.41;5069908;28;20193;-85
2023/08/05 11:33:54;;;;;;;7.28;2.60;;;;;;;32.58;37.95;96219.22;5070126;28;20189;-82
2023/08/05 11:36:25;;;;;;;4.18;2.70;;;;;;;32.69;38.47;96205.03;5052009;28;20192;-77
2023/08/05 11:38:57;;;;;;;7.18;2.40;;;;;;;32.71;38.94;96209.13;5069444;28;20289;-76
2023/08/05 11:41:25;;;;;;;4.05;2.63;;;;;;;32.98;38.71;96200.72;5069496;28;20693;-80
2023/08/05 11:43:54;;;;;;;3.53;2.65;;;;;;;32.59;39.46;96202.91;5069564;28;20197;-76
2023/08/05 11:46:29;;;;;;;8.02;3.00;;;;;;;32.68;39.29;96177.41;5051285;28;20252;-80
2023/08/05 11:49:15;;;;;;;6.13;2.55;;;;;;;32.65;39.16;96203.84;5052029;28;20217;-80
2023/08/05 11:51:51;;;;;;;5.35;2.80;;;;;;;32.56;39.59;96211.38;5034758;28;20201;-73
2023/08/05 11:54:29;;;;;;;5.32;2.67;;;;;;;32.74;39.44;96197.94;5070235;28;20243;-78
2023/08/05 11:56:57;;;;;;;5.53;3.10;;;;;;;33.19;37.99;96182.22;5051882;28;20221;-73
2023/08/05 11:59:44;;;;;;;3.03;2.00;;;;;;;33.17;37.64;96189.66;5070235;28;20238;-78
2023/08/05 12:02:17;;;;;;;5.55;2.40;;;;;;;32.70;38.66;96180.69;5034710;28;20244;-78
2023/08/05 12:04:47;;;;;;;5.57;2.95;;;;;;;32.87;38.33;96170.91;5051499;28;20200;-75
2023/08/05 12:07:19;;;;;;;2.90;2.65;;;;;;;32.80;39.06;96182.78;5051381;28;20201;-75
2023/08/05 12:10:09;;;;;;;4.78;2.75;;;;;;;33.16;36.84;96176.50;5069473;28;20236;-75
2023/08/05 12:12:41;;;;;;;5.38;3.08;;;;;;;33.15;37.57;96172.97;5071194;28;20189;-79
2023/08/05 12:15:11;;;;;;;4.00;3.25;;;;;;;33.20;38.26;96181.13;5086890;28;20229;-73
2023/08/05 12:17:43;;;;;;;3.03;2.70;;;;;;;33.40;36.86;96170.91;5071811;28;20208;-77
2023/08/05 12:20:11;;;;;;;5.07;2.90;;;;;;;33.15;37.68;96166.78;5089174;28;20671;-76
2023/08/05 12:22:38;;;;;;;4.95;2.88;;;;;;;33.19;37.94;96160.72;5088920;28;20302;-73
2023/08/05 12:25:05;;;;;;;4.25;2.67;;;;;;;33.08;38.82;96153.47;5088970;28;20252;-78
2023/08/05 12:27:33;;;;;;;5.88;2.90;;;;;;;33.25;38.37;96156.28;5088905;28;20189;-75